TimeCST,TemperatureF,Dew PointF,Humidity,Sea Level PressureIn,VisibilityMPH,Wind Direction,Wind SpeedMPH,Gust SpeedMPH,PrecipitationIn,Events,Conditions,WindDirDegrees,DateUTC
12:51 AM,39.0,28.9,67,30.47,8.0,ESE,5.8,-,N/A,,Clear,110,2012-11-17 06:51:00
1:51 AM,37.0,28.0,70,30.47,8.0,East,4.6,-,N/A,,Clear,100,2012-11-17 07:51:00
2:51 AM,35.1,28.0,76,30.48,8.0,East,4.6,-,N/A,,Clear,100,2012-11-17 08:51:00
3:51 AM,36.0,28.9,76,30.48,8.0,Calm,Calm,-,N/A,,Clear,0,2012-11-17 09:51:00
4:51 AM,33.1,26.1,75,30.50,8.0,WNW,3.5,-,N/A,,Clear,290,2012-11-17 10:51:00
5:51 AM,32.0,26.1,79,30.51,8.0,ESE,4.6,-,N/A,,Clear,110,2012-11-17 11:51:00
6:51 AM,34.0,28.0,79,30.51,6.0,ESE,6.9,-,N/A,,Haze,110,2012-11-17 12:51:00
7:51 AM,37.0,30.0,76,30.53,5.0,Calm,Calm,-,N/A,,Haze,0,2012-11-17 13:51:00
8:51 AM,43.0,32.0,65,30.53,5.0,Calm,Calm,-,N/A,,Haze,0,2012-11-17 14:51:00
9:51 AM,50.0,32.0,50,30.52,5.0,Calm,Calm,-,N/A,,Haze,0,2012-11-17 15:51:00
10:51 AM,52.0,32.0,47,30.52,6.0,ESE,3.5,-,N/A,,Haze,120,2012-11-17 16:51:00
11:51 AM,55.0,28.9,37,30.49,8.0,Calm,Calm,-,N/A,,Partly Cloudy,0,2012-11-17 17:51:00
12:51 PM,55.9,26.1,32,30.46,10.0,SE,8.1,-,N/A,,Partly Cloudy,130,2012-11-17 18:51:00
1:51 PM,57.0,27.0,32,30.44,10.0,ESE,9.2,-,N/A,,Scattered Clouds,110,2012-11-17 19:51:00
2:51 PM,55.9,30.9,39,30.43,10.0,SE,8.1,-,N/A,,Mostly Cloudy,130,2012-11-17 20:51:00
4:51 PM,48.9,32.0,52,30.43,9.0,East,8.1,-,N/A,,Mostly Cloudy,90,2012-11-17 22:51:00
5:51 PM,48.0,33.1,56,30.43,10.0,East,8.1,-,N/A,,Mostly Cloudy,100,2012-11-17 23:51:00
6:51 PM,45.0,33.1,63,30.43,9.0,ESE,8.1,-,N/A,,Mostly Cloudy,110,2012-11-18 00:51:00
7:51 PM,43.0,33.1,68,30.43,9.0,ESE,3.5,-,N/A,,Mostly Cloudy,120,2012-11-18 01:51:00
8:51 PM,43.0,33.1,68,30.44,9.0,ESE,5.8,-,N/A,,Scattered Clouds,110,2012-11-18 02:51:00
9:51 PM,41.0,32.0,70,30.44,9.0,ESE,6.9,-,N/A,,Scattered Clouds,120,2012-11-18 03:51:00
10:51 PM,37.9,32.0,79,30.43,9.0,ESE,8.1,-,N/A,,Scattered Clouds,110,2012-11-18 04:51:00
11:51 PM,37.0,30.9,79,30.42,9.0,ESE,9.2,-,N/A,,Scattered Clouds,110,2012-11-18 05:51:00